sensor_id;sensor_type;location;lat;lon;timestamp;P1;P2;P0
82821;PMS5003;72574;46.842;-71.246;2024-03-06T00:01:14;42.3;23.15;12.8
82821;PMS5003;72574;46.842;-71.246;2024-03-06T00:03:40;41.94;31.22;15.22
82821;PMS5003;72574;46.842;-71.246;2024-03-06T00:06:04;54.6;36.55;19.65
82821;PMS5003;72574;46.842;-71.246;2024-03-06T00:08:33;49.62;31.95;18.43
82821;PMS5003;72574;46.842;-71.246;2024-03-06T00:10:56;42.95;29.89;14.89
82821;PMS5003;72574;46.842;-71.246;2024-03-06T00:13:22;49.11;32.89;17.74
82821;PMS5003;72574;46.842;-71.246;2024-03-06T00:15:48;38.47;28.79;14.05
82821;PMS5003;72574;46.842;-71.246;2024-03-06T00:18:11;39.11;26.32;14.26
82821;PMS5003;72574;46.842;-71.246;2024-03-06T00:20:37;48.35;29.4;15.75
82821;PMS5003;72574;46.842;-71.246;2024-03-06T00:23:04;37.28;26.67;14.94
82821;PMS5003;72574;46.842;-71.246;2024-03-06T00:25:32;47.05;30.24;16.05
82821;PMS5003;72574;46.842;-71.246;2024-03-06T00:28:00;42.85;28.45;15.6
82821;PMS5003;72574;46.842;-71.246;2024-03-06T00:30:22;32.95;24.84;15.11
82821;PMS5003;72574;46.842;-71.246;2024-03-06T00:32:49;36.06;25.33;15.44
82821;PMS5003;72574;46.842;-71.246;2024-03-06T00:35:15;36.11;26.44;16.17
82821;PMS5003;72574;46.842;-71.246;2024-03-06T00:37:41;33;30.89;17.68
82821;PMS5003;72574;46.842;-71.246;2024-03-06T00:40:07;40.74;26.58;14.42
82821;PMS5003;72574;46.842;-71.246;2024-03-06T00:42:31;44.3;34.05;20.35
82821;PMS5003;72574;46.842;-71.246;2024-03-06T00:44:57;36.89;28.74;14.21
82821;PMS5003;72574;46.842;-71.246;2024-03-06T00:47:23;54.1;41.75;24.2
82821;PMS5003;72574;46.842;-71.246;2024-03-06T00:49:46;64.05;44.11;24.89
82821;PMS5003;72574;46.842;-71.246;2024-03-06T00:52:13;64.85;45.95;26.4
82821;PMS5003;72574;46.842;-71.246;2024-03-06T00:54:45;60.14;43.19;24.67
82821;PMS5003;72574;46.842;-71.246;2024-03-06T00:57:12;71.3;48.5;28.35
82821;PMS5003;72574;46.842;-71.246;2024-03-06T00:59:37;63.47;46;26.89
82821;PMS5003;72574;46.842;-71.246;2024-03-06T01:02:00;52.86;40.05;23.52
82821;PMS5003;72574;46.842;-71.246;2024-03-06T01:04:27;64.11;47.61;26.06
82821;PMS5003;72574;46.842;-71.246;2024-03-06T01:06:51;57.48;40.52;23.86
82821;PMS5003;72574;46.842;-71.246;2024-03-06T01:09:19;60.5;43.72;24.89
82821;PMS5003;72574;46.842;-71.246;2024-03-06T01:11:45;51.71;35.9;20.67
82821;PMS5003;72574;46.842;-71.246;2024-03-06T01:14:10;46.85;35.2;19.5
82821;PMS5003;72574;46.842;-71.246;2024-03-06T01:16:35;37.14;31.24;21
82821;PMS5003;72574;46.842;-71.246;2024-03-06T01:18:59;44.63;34;20.63
82821;PMS5003;72574;46.842;-71.246;2024-03-06T01:21:26;39.89;31.16;18.84
82821;PMS5003;72574;46.842;-71.246;2024-03-06T01:23:51;41.05;31.89;17.84
82821;PMS5003;72574;46.842;-71.246;2024-03-06T01:26:15;42.9;32.76;21.95
82821;PMS5003;72574;46.842;-71.246;2024-03-06T01:28:41;41.05;31.48;19.43
82821;PMS5003;72574;46.842;-71.246;2024-03-06T01:31:08;32.29;29.38;19
82821;PMS5003;72574;46.842;-71.246;2024-03-06T01:33:34;36.43;30.86;20.05
82821;PMS5003;72574;46.842;-71.246;2024-03-06T01:35:57;37.4;31.4;20.35
82821;PMS5003;72574;46.842;-71.246;2024-03-06T01:38:23;40.81;35.14;21.81
82821;PMS5003;72574;46.842;-71.246;2024-03-06T01:40:49;37.95;33.55;21.2
82821;PMS5003;72574;46.842;-71.246;2024-03-06T01:43:17;36.55;32.6;20.95
82821;PMS5003;72574;46.842;-71.246;2024-03-06T01:45:40;41.5;35.45;22.91
82821;PMS5003;72574;46.842;-71.246;2024-03-06T01:48:07;36.95;33.15;21.35
82821;PMS5003;72574;46.842;-71.246;2024-03-06T01:50:31;44;34.45;21.45
82821;PMS5003;72574;46.842;-71.246;2024-03-06T01:52:57;44.65;34.7;22.1
82821;PMS5003;72574;46.842;-71.246;2024-03-06T01:55:21;50.84;38.47;23.79
82821;PMS5003;72574;46.842;-71.246;2024-03-06T01:57:47;44.74;34.47;23.26
82821;PMS5003;72574;46.842;-71.246;2024-03-06T02:00:13;39.71;32.95;22
82821;PMS5003;72574;46.842;-71.246;2024-03-06T02:02:40;42.8;34.5;22.45
82821;PMS5003;72574;46.842;-71.246;2024-03-06T02:05:04;39.7;32.95;22.75
82821;PMS5003;72574;46.842;-71.246;2024-03-06T02:07:30;36.52;32.71;20.76
82821;PMS5003;72574;46.842;-71.246;2024-03-06T02:09:54;38.67;32.14;21.9
82821;PMS5003;72574;46.842;-71.246;2024-03-06T02:12:22;37.43;33.43;22.95
82821;PMS5003;72574;46.842;-71.246;2024-03-06T02:14:45;47.42;35.63;22.84
82821;PMS5003;72574;46.842;-71.246;2024-03-06T02:17:12;49.6;36.45;23.3
82821;PMS5003;72574;46.842;-71.246;2024-03-06T02:19:39;50.75;38.05;23.75
82821;PMS5003;72574;46.842;-71.246;2024-03-06T02:22:05;42.74;35.26;22.95
82821;PMS5003;72574;46.842;-71.246;2024-03-06T02:24:28;36;33.14;21.95
82821;PMS5003;72574;46.842;-71.246;2024-03-06T02:26:54;45.05;35.84;23.37
82821;PMS5003;72574;46.842;-71.246;2024-03-06T02:29:18;53.25;38.15;24.8
82821;PMS5003;72574;46.842;-71.246;2024-03-06T02:31:44;42.33;37.29;24.48
82821;PMS5003;72574;46.842;-71.246;2024-03-06T02:34:11;52.42;37.84;23.89
82821;PMS5003;72574;46.842;-71.246;2024-03-06T02:36:36;46.05;38.43;24.52
82821;PMS5003;72574;46.842;-71.246;2024-03-06T02:39:02;51.8;40.25;25.4
82821;PMS5003;72574;46.842;-71.246;2024-03-06T02:41:27;53.53;39.37;25.37
82821;PMS5003;72574;46.842;-71.246;2024-03-06T02:43:54;43.43;37.81;25.14
82821;PMS5003;72574;46.842;-71.246;2024-03-06T02:46:17;49.14;39.71;25.43
82821;PMS5003;72574;46.842;-71.246;2024-03-06T02:48:44;51.05;38.37;24.32
82821;PMS5003;72574;46.842;-71.246;2024-03-06T02:51:08;50.05;39.42;25.32
82821;PMS5003;72574;46.842;-71.246;2024-03-06T02:53:36;48.15;38.65;23.8
82821;PMS5003;72574;46.842;-71.246;2024-03-06T02:55:59;41.81;36.19;23.19
82821;PMS5003;72574;46.842;-71.246;2024-03-06T02:58:25;48.11;37.74;24.37
82821;PMS5003;72574;46.842;-71.246;2024-03-06T03:00:51;47.52;37.52;23.19
82821;PMS5003;72574;46.842;-71.246;2024-03-06T03:03:17;51;39;24.74
82821;PMS5003;72574;46.842;-71.246;2024-03-06T03:05:41;45;38.19;25.05
82821;PMS5003;72574;46.842;-71.246;2024-03-06T03:08:08;37.29;33.9;22.71
82821;PMS5003;72574;46.842;-71.246;2024-03-06T03:10:34;46.38;35.57;24.1
82821;PMS5003;72574;46.842;-71.246;2024-03-06T03:13:03;50.11;38.42;24.79
82821;PMS5003;72574;46.842;-71.246;2024-03-06T03:15:27;46.14;36.77;23.95
82821;PMS5003;72574;46.842;-71.246;2024-03-06T03:17:52;42.05;36.38;23.24
82821;PMS5003;72574;46.842;-71.246;2024-03-06T03:20:18;48.2;39.2;25.35
82821;PMS5003;72574;46.842;-71.246;2024-03-06T03:22:43;47.62;40;25.57
82821;PMS5003;72574;46.842;-71.246;2024-03-06T03:25:07;59;44.06;28.94
82821;PMS5003;72574;46.842;-71.246;2024-03-06T03:27:34;56.84;42.37;26
82821;PMS5003;72574;46.842;-71.246;2024-03-06T03:30:01;50.57;41.71;27
82821;PMS5003;72574;46.842;-71.246;2024-03-06T03:32:24;59.28;45.83;28.72
82821;PMS5003;72574;46.842;-71.246;2024-03-06T03:34:50;61.15;45.1;29
82821;PMS5003;72574;46.842;-71.246;2024-03-06T03:37:15;68.53;48.05;29.32
82821;PMS5003;72574;46.842;-71.246;2024-03-06T03:39:43;65.53;47.05;29.11
82821;PMS5003;72574;46.842;-71.246;2024-03-06T03:42:07;62.65;46.75;30.25
82821;PMS5003;72574;46.842;-71.246;2024-03-06T03:44:34;57.62;46.38;28.76
82821;PMS5003;72574;46.842;-71.246;2024-03-06T03:46:59;65.15;49.4;29.8
82821;PMS5003;72574;46.842;-71.246;2024-03-06T03:49:25;66.16;48.16;29.84
82821;PMS5003;72574;46.842;-71.246;2024-03-06T03:51:48;64.86;47.48;30.24
82821;PMS5003;72574;46.842;-71.246;2024-03-06T03:54:16;61.11;44.17;27.22
82821;PMS5003;72574;46.842;-71.246;2024-03-06T03:56:42;57.14;44.86;28.33
82821;PMS5003;72574;46.842;-71.246;2024-03-06T03:59:05;63.8;44.5;27.9
82821;PMS5003;72574;46.842;-71.246;2024-03-06T04:01:32;60.3;45.2;28.8
82821;PMS5003;72574;46.842;-71.246;2024-03-06T04:03:57;58.7;45.6;27.75
82821;PMS5003;72574;46.842;-71.246;2024-03-06T04:06:24;58.33;46.81;29
82821;PMS5003;72574;46.842;-71.246;2024-03-06T04:08:49;62.4;46.6;29.05
82821;PMS5003;72574;46.842;-71.246;2024-03-06T04:11:14;68.81;48.81;29.71
82821;PMS5003;72574;46.842;-71.246;2024-03-06T04:13:40;61.16;46.53;28.68
82821;PMS5003;72574;46.842;-71.246;2024-03-06T04:16:04;61.7;47.3;29.45
82821;PMS5003;72574;46.842;-71.246;2024-03-06T04:18:33;63.35;46.7;27.4
82821;PMS5003;72574;46.842;-71.246;2024-03-06T04:20:57;59.62;45.62;28.29
82821;PMS5003;72574;46.842;-71.246;2024-03-06T04:23:20;53;43.19;28.62
82821;PMS5003;72574;46.842;-71.246;2024-03-06T04:25:46;59.25;46.7;29.5
82821;PMS5003;72574;46.842;-71.246;2024-03-06T04:28:13;60.14;45.67;29.33
82821;PMS5003;72574;46.842;-71.246;2024-03-06T04:30:39;66.15;48.15;30.05
82821;PMS5003;72574;46.842;-71.246;2024-03-06T04:33:05;62.42;48.05;29.32
82821;PMS5003;72574;46.842;-71.246;2024-03-06T04:35:31;63;48.74;31.37
82821;PMS5003;72574;46.842;-71.246;2024-03-06T04:37:53;57.42;45.89;28.47
82821;PMS5003;72574;46.842;-71.246;2024-03-06T04:40:22;61.74;47.79;29.42
82821;PMS5003;72574;46.842;-71.246;2024-03-06T04:42:46;61.16;46.37;29.89
82821;PMS5003;72574;46.842;-71.246;2024-03-06T04:45:11;58.79;45.21;28.47
82821;PMS5003;72574;46.842;-71.246;2024-03-06T04:47:36;61.25;46.05;30.1
82821;PMS5003;72574;46.842;-71.246;2024-03-06T04:50:02;59.7;45;27.7
82821;PMS5003;72574;46.842;-71.246;2024-03-06T04:52:28;59.25;45.45;28.4
82821;PMS5003;72574;46.842;-71.246;2024-03-06T04:54:55;55.1;44.9;28.38
82821;PMS5003;72574;46.842;-71.246;2024-03-06T04:57:18;65.61;47.78;30.17
82821;PMS5003;72574;46.842;-71.246;2024-03-06T04:59:44;58.56;43.17;28.39
82821;PMS5003;72574;46.842;-71.246;2024-03-06T05:02:09;61.68;46.11;30.89
82821;PMS5003;72574;46.842;-71.246;2024-03-06T05:04:34;52.52;43.76;28.19
82821;PMS5003;72574;46.842;-71.246;2024-03-06T05:07:00;62.84;47.84;30.68
82821;PMS5003;72574;46.842;-71.246;2024-03-06T05:09:27;56.52;44.48;27.95
82821;PMS5003;72574;46.842;-71.246;2024-03-06T05:11:51;56.5;43.25;29.6
82821;PMS5003;72574;46.842;-71.246;2024-03-06T05:14:17;55.26;43.16;27.47
82821;PMS5003;72574;46.842;-71.246;2024-03-06T05:16:43;55.89;43.44;28.33
82821;PMS5003;72574;46.842;-71.246;2024-03-06T05:19:08;57.21;43.05;29.16
82821;PMS5003;72574;46.842;-71.246;2024-03-06T05:21:32;54.71;44.29;28.14
82821;PMS5003;72574;46.842;-71.246;2024-03-06T05:23:59;51.95;41.85;27.6
82821;PMS5003;72574;46.842;-71.246;2024-03-06T05:26:25;53.05;43;28.63
82821;PMS5003;72574;46.842;-71.246;2024-03-06T05:28:52;58.65;43.6;28.05
82821;PMS5003;72574;46.842;-71.246;2024-03-06T05:31:18;50.29;42.05;27.52
82821;PMS5003;72574;46.842;-71.246;2024-03-06T05:33:42;54.57;44.14;28.76
82821;PMS5003;72574;46.842;-71.246;2024-03-06T05:36:06;56.57;45.19;28.19
82821;PMS5003;72574;46.842;-71.246;2024-03-06T05:38:32;56.24;43.62;29.38
82821;PMS5003;72574;46.842;-71.246;2024-03-06T05:40:58;55;46;29.24
82821;PMS5003;72574;46.842;-71.246;2024-03-06T05:43:24;60.5;45.4;29.4
82821;PMS5003;72574;46.842;-71.246;2024-03-06T05:45:48;54.81;44.29;28.19
82821;PMS5003;72574;46.842;-71.246;2024-03-06T05:48:13;54.14;45.67;30.05
82821;PMS5003;72574;46.842;-71.246;2024-03-06T05:50:40;62.11;46.61;29.61
82821;PMS5003;72574;46.842;-71.246;2024-03-06T05:53:04;64.26;47.68;29.32
82821;PMS5003;72574;46.842;-71.246;2024-03-06T05:55:30;59.63;45.37;28.47
82821;PMS5003;72574;46.842;-71.246;2024-03-06T05:57:56;54.67;44.19;26.52
82821;PMS5003;72574;46.842;-71.246;2024-03-06T06:00:22;60.21;44.89;27.58
82821;PMS5003;72574;46.842;-71.246;2024-03-06T06:02:48;54.43;44.24;28.43
82821;PMS5003;72574;46.842;-71.246;2024-03-06T06:05:11;62.11;45.68;28.16
82821;PMS5003;72574;46.842;-71.246;2024-03-06T06:07:37;60.68;44.42;26.53
82821;PMS5003;72574;46.842;-71.246;2024-03-06T06:10:03;59.89;42.33;26.44
82821;PMS5003;72574;46.842;-71.246;2024-03-06T06:12:29;50.19;41.52;26.52
82821;PMS5003;72574;46.842;-71.246;2024-03-06T06:14:55;44.62;39.86;25.67
82821;PMS5003;72574;46.842;-71.246;2024-03-06T06:17:21;48.27;39.77;25.27
82821;PMS5003;72574;46.842;-71.246;2024-03-06T06:19:45;56.44;42;25.67
82821;PMS5003;72574;46.842;-71.246;2024-03-06T06:22:13;53.89;43.11;27.26
82821;PMS5003;72574;46.842;-71.246;2024-03-06T06:24:36;53.2;41.3;25.45
82821;PMS5003;72574;46.842;-71.246;2024-03-06T06:27:02;58.17;43.39;26.44
82821;PMS5003;72574;46.842;-71.246;2024-03-06T06:29:28;44.48;38.9;25.1
82821;PMS5003;72574;46.842;-71.246;2024-03-06T06:31:52;45.21;37.58;24.53
82821;PMS5003;72574;46.842;-71.246;2024-03-06T06:34:18;45.9;38.29;24
82821;PMS5003;72574;46.842;-71.246;2024-03-06T06:36:45;52.55;41.2;26.1
82821;PMS5003;72574;46.842;-71.246;2024-03-06T06:39:09;54.95;42.81;25.38
82821;PMS5003;72574;46.842;-71.246;2024-03-06T06:41:34;52.79;40.11;24.84
82821;PMS5003;72574;46.842;-71.246;2024-03-06T06:43:59;56.42;40.26;25.63
82821;PMS5003;72574;46.842;-71.246;2024-03-06T06:46:25;47.9;38.25;23.85
82821;PMS5003;72574;46.842;-71.246;2024-03-06T06:48:52;51.3;40.7;25.3
82821;PMS5003;72574;46.842;-71.246;2024-03-06T06:51:19;55.1;41;25.45
82821;PMS5003;72574;46.842;-71.246;2024-03-06T06:53:44;47.29;37.24;25.29
82821;PMS5003;72574;46.842;-71.246;2024-03-06T06:56:08;53.33;38.56;25
82821;PMS5003;72574;46.842;-71.246;2024-03-06T06:58:33;54.11;37.72;24.11
82821;PMS5003;72574;46.842;-71.246;2024-03-06T07:00:58;42.8;36.15;23.4
82821;PMS5003;72574;46.842;-71.246;2024-03-06T07:03:24;44.05;37.52;23.76
82821;PMS5003;72574;46.842;-71.246;2024-03-06T07:05:48;54.56;39.22;25.22
82821;PMS5003;72574;46.842;-71.246;2024-03-06T07:08:17;45.23;38.05;25.05
82821;PMS5003;72574;46.842;-71.246;2024-03-06T07:10:42;52.16;40.63;25.58
82821;PMS5003;72574;46.842;-71.246;2024-03-06T07:13:05;51.47;38.68;25.42
82821;PMS5003;72574;46.842;-71.246;2024-03-06T07:15:33;48;37.85;25.05
82821;PMS5003;72574;46.842;-71.246;2024-03-06T07:17:59;44.71;38.62;24.71
82821;PMS5003;72574;46.842;-71.246;2024-03-06T07:20:24;42.25;37.1;24.75
82821;PMS5003;72574;46.842;-71.246;2024-03-06T07:22:47;57.2;42.7;26.45
82821;PMS5003;72574;46.842;-71.246;2024-03-06T07:25:13;45.05;37.77;24.64
82821;PMS5003;72574;46.842;-71.246;2024-03-06T07:27:40;47.33;36.44;23.61
82821;PMS5003;72574;46.842;-71.246;2024-03-06T07:30:07;46.45;34.7;22.85
82821;PMS5003;72574;46.842;-71.246;2024-03-06T07:32:31;28.9;26.81;19.62
82821;PMS5003;72574;46.842;-71.246;2024-03-06T07:34:55;25;23.48;15.76
82821;PMS5003;72574;46.842;-71.246;2024-03-06T07:37:21;27.33;25.67;17.67
82821;PMS5003;72574;46.842;-71.246;2024-03-06T07:39:48;23.76;22.29;15.33
82821;PMS5003;72574;46.842;-71.246;2024-03-06T07:42:14;26.36;24.05;15.36
82821;PMS5003;72574;46.842;-71.246;2024-03-06T07:44:37;26.81;24.76;15.19
82821;PMS5003;72574;46.842;-71.246;2024-03-06T07:47:04;27.38;24.71;15.57
82821;PMS5003;72574;46.842;-71.246;2024-03-06T07:49:29;26.33;21.19;15.19
82821;PMS5003;72574;46.842;-71.246;2024-03-06T07:51:53;32.45;28.7;18.85
82821;PMS5003;72574;46.842;-71.246;2024-03-06T07:54:20;27.52;24.81;16.76
82821;PMS5003;72574;46.842;-71.246;2024-03-06T07:56:51;24.59;24.5;18.45
82821;PMS5003;72574;46.842;-71.246;2024-03-06T07:59:17;27.45;26.23;16.68
82821;PMS5003;72574;46.842;-71.246;2024-03-06T08:01:44;23.52;22.29;16.05
82821;PMS5003;72574;46.842;-71.246;2024-03-06T08:04:07;25.33;24.71;15.9
82821;PMS5003;72574;46.842;-71.246;2024-03-06T08:06:34;23.19;21.33;13.9
82821;PMS5003;72574;46.842;-71.246;2024-03-06T08:08:59;22.35;20.75;14.25
82821;PMS5003;72574;46.842;-71.246;2024-03-06T08:11:26;32.28;24.61;16.89
82821;PMS5003;72574;46.842;-71.246;2024-03-06T08:13:49;29.67;24.38;16.29
82821;PMS5003;72574;46.842;-71.246;2024-03-06T08:16:16;24.57;22.67;16.05
82821;PMS5003;72574;46.842;-71.246;2024-03-06T08:18:40;23.38;21.67;14.24
82821;PMS5003;72574;46.842;-71.246;2024-03-06T08:21:08;21.86;20.76;14.67
82821;PMS5003;72574;46.842;-71.246;2024-03-06T08:23:31;20.19;19.19;13.14
82821;PMS5003;72574;46.842;-71.246;2024-03-06T08:25:58;29.8;21.25;13.7
82821;PMS5003;72574;46.842;-71.246;2024-03-06T08:28:22;24.67;20.48;14.9
82821;PMS5003;72574;46.842;-71.246;2024-03-06T08:30:49;22.59;21.41;13.73
82821;PMS5003;72574;46.842;-71.246;2024-03-06T08:33:15;20.14;20.05;14.19
82821;PMS5003;72574;46.842;-71.246;2024-03-06T08:35:39;21.62;20.9;14.38
82821;PMS5003;72574;46.842;-71.246;2024-03-06T08:38:06;30.7;23.35;15.2
82821;PMS5003;72574;46.842;-71.246;2024-03-06T08:40:30;24;21.1;14.67
82821;PMS5003;72574;46.842;-71.246;2024-03-06T08:42:56;21.57;20.71;14.52
82821;PMS5003;72574;46.842;-71.246;2024-03-06T08:45:20;20.29;20.29;14.05
82821;PMS5003;72574;46.842;-71.246;2024-03-06T08:47:47;29.8;23.6;13.85
82821;PMS5003;72574;46.842;-71.246;2024-03-06T08:50:14;21.33;20.9;13.38
82821;PMS5003;72574;46.842;-71.246;2024-03-06T08:52:40;21.43;19.71;13.48
82821;PMS5003;72574;46.842;-71.246;2024-03-06T08:55:04;18.65;18.15;12.75
82821;PMS5003;72574;46.842;-71.246;2024-03-06T08:57:30;17.33;17.05;12.19
82821;PMS5003;72574;46.842;-71.246;2024-03-06T08:59:53;19.32;17.05;11.05
82821;PMS5003;72574;46.842;-71.246;2024-03-06T09:29:51;15.52;14.71;10.24
82821;PMS5003;72574;46.842;-71.246;2024-03-06T09:30:19;13.68;11.77;9.36
82821;PMS5003;72574;46.842;-71.246;2024-03-06T09:30:49;15.05;12.77;8.91
82821;PMS5003;72574;46.842;-71.246;2024-03-06T09:31:19;17.82;14.64;9.27
82821;PMS5003;72574;46.842;-71.246;2024-03-06T09:31:38;15.95;13.55;8.68
82821;PMS5003;72574;46.842;-71.246;2024-03-06T09:31:56;10.95;10.23;7.91
82821;PMS5003;72574;46.842;-71.246;2024-03-06T09:32:10;9.23;8.36;7
82821;PMS5003;72574;46.842;-71.246;2024-03-06T09:32:28;8.91;7.95;5.68
82821;PMS5003;72574;46.842;-71.246;2024-03-06T09:32:41;6.86;5.5;3.36
82821;PMS5003;72574;46.842;-71.246;2024-03-06T09:35:07;9.33;9.1;6.38
82821;PMS5003;72574;46.842;-71.246;2024-03-06T09:37:31;10.27;9.45;7
82821;PMS5003;72574;46.842;-71.246;2024-03-06T09:39:57;11.24;8.38;6.52
82821;PMS5003;72574;46.842;-71.246;2024-03-06T09:42:26;7.24;7.24;4.57
82821;PMS5003;72574;46.842;-71.246;2024-03-06T09:44:53;11.45;8.73;6.68
82821;PMS5003;72574;46.842;-71.246;2024-03-06T09:47:18;8.38;8;3.38
82821;PMS5003;72574;46.842;-71.246;2024-03-06T09:49:44;6.71;6.57;4.52
82821;PMS5003;72574;46.842;-71.246;2024-03-06T09:52:10;7.9;7.52;4
82821;PMS5003;72574;46.842;-71.246;2024-03-06T09:54:48;6.64;6.64;4.41
82821;PMS5003;72574;46.842;-71.246;2024-03-06T09:57:14;6.32;6.32;3.95
82821;PMS5003;72574;46.842;-71.246;2024-03-06T09:59:39;8.38;7.48;4.38
82821;PMS5003;72574;46.842;-71.246;2024-03-06T10:02:05;7.52;7.52;5.38
82821;PMS5003;72574;46.842;-71.246;2024-03-06T10:04:32;8.09;7.55;5
82821;PMS5003;72574;46.842;-71.246;2024-03-06T10:06:55;8.62;8.43;6.81
82821;PMS5003;72574;46.842;-71.246;2024-03-06T10:09:22;8.38;8.1;5.71
82821;PMS5003;72574;46.842;-71.246;2024-03-06T10:11:48;9.41;8.27;6.95
82821;PMS5003;72574;46.842;-71.246;2024-03-06T10:14:13;7.29;7;5.38
82821;PMS5003;72574;46.842;-71.246;2024-03-06T10:16:37;8.71;8.48;6.14
82821;PMS5003;72574;46.842;-71.246;2024-03-06T10:19:14;10.71;9.38;6.95
82821;PMS5003;72574;46.842;-71.246;2024-03-06T10:21:30;8.48;8.14;5.29
82821;PMS5003;72574;46.842;-71.246;2024-03-06T10:23:57;6.14;5.48;3.52
82821;PMS5003;72574;46.842;-71.246;2024-03-06T10:26:21;8.05;7.9;5.33
82821;PMS5003;72574;46.842;-71.246;2024-03-06T10:28:48;8.09;7.55;5.59
82821;PMS5003;72574;46.842;-71.246;2024-03-06T10:31:11;8;7.38;5.62
82821;PMS5003;72574;46.842;-71.246;2024-03-06T10:33:37;7.19;6.81;4.19
82821;PMS5003;72574;46.842;-71.246;2024-03-06T10:36:02;7.62;7.33;6.14
82821;PMS5003;72574;46.842;-71.246;2024-03-06T10:38:27;8.52;6.76;3.67
82821;PMS5003;72574;46.842;-71.246;2024-03-06T10:40:53;8;7.76;5.9
82821;PMS5003;72574;46.842;-71.246;2024-03-06T10:43:19;7.05;4.95;3.62
82821;PMS5003;72574;46.842;-71.246;2024-03-06T10:45:46;8.55;7.05;6.18
82821;PMS5003;72574;46.842;-71.246;2024-03-06T10:48:11;6.14;6.14;3.52
82821;PMS5003;72574;46.842;-71.246;2024-03-06T10:50:34;4.86;4.86;3.67
82821;PMS5003;72574;46.842;-71.246;2024-03-06T10:53:01;6.76;6.24;4
82821;PMS5003;72574;46.842;-71.246;2024-03-06T10:55:27;6.48;6.48;4.62
82821;PMS5003;72574;46.842;-71.246;2024-03-06T10:57:51;7.1;7.1;4.19
82821;PMS5003;72574;46.842;-71.246;2024-03-06T11:00:16;6.81;6.1;3.76
82821;PMS5003;72574;46.842;-71.246;2024-03-06T11:02:43;7.09;6.68;4.14
82821;PMS5003;72574;46.842;-71.246;2024-03-06T11:05:09;5.81;5.57;3.19
82821;PMS5003;72574;46.842;-71.246;2024-03-06T11:07:35;8.76;8.24;5.52
82821;PMS5003;72574;46.842;-71.246;2024-03-06T11:09:59;9.14;8.86;6.24
82821;PMS5003;72574;46.842;-71.246;2024-03-06T11:12:33;14.79;9;5.79
82821;PMS5003;72574;46.842;-71.246;2024-03-06T11:14:50;8.29;8.29;4.33
82821;PMS5003;72574;46.842;-71.246;2024-03-06T11:17:14;8;8;4.62
82821;PMS5003;72574;46.842;-71.246;2024-03-06T11:20:16;8.77;8.23;6.59
82821;PMS5003;72574;46.842;-71.246;2024-03-06T11:22:06;8.1;7.9;4.71
82821;PMS5003;72574;46.842;-71.246;2024-03-06T11:24:33;10.95;7.89;4.21
82821;PMS5003;72574;46.842;-71.246;2024-03-06T11:26:59;8.38;7.9;4.24
82821;PMS5003;72574;46.842;-71.246;2024-03-06T11:29:24;7.76;7.76;5.14
82821;PMS5003;72574;46.842;-71.246;2024-03-06T11:31:57;8.18;7.14;4.14
82821;PMS5003;72574;46.842;-71.246;2024-03-06T11:34:15;7.81;7.81;5.71
82821;PMS5003;72574;46.842;-71.246;2024-03-06T11:36:41;9.77;7.95;5.64
82821;PMS5003;72574;46.842;-71.246;2024-03-06T11:39:06;9.15;8.15;5.1
82821;PMS5003;72574;46.842;-71.246;2024-03-06T11:41:46;10.33;9.38;5.48
82821;PMS5003;72574;46.842;-71.246;2024-03-06T11:43:59;8.76;8.71;5.38
82821;PMS5003;72574;46.842;-71.246;2024-03-06T11:46:26;9.33;9.33;6.9
82821;PMS5003;72574;46.842;-71.246;2024-03-06T11:48:52;8.2;7.15;3.6
82821;PMS5003;72574;46.842;-71.246;2024-03-06T11:51:13;13.05;12.14;7.38
82821;PMS5003;72574;46.842;-71.246;2024-03-06T11:53:40;9.09;9.09;6.5
82821;PMS5003;72574;46.842;-71.246;2024-03-06T11:56:06;9.76;9.76;6.71
82821;PMS5003;72574;46.842;-71.246;2024-03-06T11:58:30;10.33;9.71;7.67
82821;PMS5003;72574;46.842;-71.246;2024-03-06T12:00:56;11.24;10.1;7.1
82821;PMS5003;72574;46.842;-71.246;2024-03-06T12:03:23;9;8.9;5.76
82821;PMS5003;72574;46.842;-71.246;2024-03-06T12:05:49;5.86;5.86;3.38
82821;PMS5003;72574;46.842;-71.246;2024-03-06T12:08:14;6.67;6.24;3.1
82821;PMS5003;72574;46.842;-71.246;2024-03-06T12:10:38;6.77;6.77;4.95
82821;PMS5003;72574;46.842;-71.246;2024-03-06T12:13:05;7.67;7.67;4.67
82821;PMS5003;72574;46.842;-71.246;2024-03-06T12:15:29;5.95;4.9;3.5
82821;PMS5003;72574;46.842;-71.246;2024-03-06T12:17:57;4.74;4.74;3.47
82821;PMS5003;72574;46.842;-71.246;2024-03-06T12:20:20;3.62;3.62;3
82821;PMS5003;72574;46.842;-71.246;2024-03-06T12:22:48;4.16;3.95;2.63
82821;PMS5003;72574;46.842;-71.246;2024-03-06T12:25:10;3.62;3.62;2.52
82821;PMS5003;72574;46.842;-71.246;2024-03-06T12:27:37;3.71;3.71;3.05
82821;PMS5003;72574;46.842;-71.246;2024-03-06T12:30:08;3.29;3.14;2.38
82821;PMS5003;72574;46.842;-71.246;2024-03-06T12:32:29;7.29;5.05;3
82821;PMS5003;72574;46.842;-71.246;2024-03-06T12:34:56;3.33;3.33;2.22
82821;PMS5003;72574;46.842;-71.246;2024-03-06T12:37:18;6.37;5.37;2
82821;PMS5003;72574;46.842;-71.246;2024-03-06T12:39:45;4;4;3.21
82821;PMS5003;72574;46.842;-71.246;2024-03-06T12:42:09;2.95;2.95;2
82821;PMS5003;72574;46.842;-71.246;2024-03-06T12:44:37;2.77;2.55;2
82821;PMS5003;72574;46.842;-71.246;2024-03-06T12:47:02;3.53;3.53;2.11
82821;PMS5003;72574;46.842;-71.246;2024-03-06T12:49:28;3.47;2.84;2
82821;PMS5003;72574;46.842;-71.246;2024-03-06T12:51:52;2.2;2.2;1.95
82821;PMS5003;72574;46.842;-71.246;2024-03-06T12:54:19;2.67;2.67;2.33
82821;PMS5003;72574;46.842;-71.246;2024-03-06T12:56:42;2.65;2.65;1.65
82821;PMS5003;72574;46.842;-71.246;2024-03-06T12:59:08;2.39;2.39;2
82821;PMS5003;72574;46.842;-71.246;2024-03-06T13:01:35;1.95;1.95;1.63
82821;PMS5003;72574;46.842;-71.246;2024-03-06T13:04:00;2;2;1.06
82821;PMS5003;72574;46.842;-71.246;2024-03-06T13:06:27;1.94;1.94;1
82821;PMS5003;72574;46.842;-71.246;2024-03-06T13:08:51;1;1;0.63
82821;PMS5003;72574;46.842;-71.246;2024-03-06T13:11:15;1.06;1.06;0.06
82821;PMS5003;72574;46.842;-71.246;2024-03-06T13:13:42;0.94;0.94;0.94
82821;PMS5003;72574;46.842;-71.246;2024-03-06T13:16:08;1.17;1;1
82821;PMS5003;72574;46.842;-71.246;2024-03-06T13:18:33;1.21;1.21;1
82821;PMS5003;72574;46.842;-71.246;2024-03-06T13:21:00;1.53;1;0.79
82821;PMS5003;72574;46.842;-71.246;2024-03-06T13:23:24;0.8;0.05;0.05
82821;PMS5003;72574;46.842;-71.246;2024-03-06T13:25:48;1.05;1.05;1
82821;PMS5003;72574;46.842;-71.246;2024-03-06T13:28:14;0.53;0.53;0
82821;PMS5003;72574;46.842;-71.246;2024-03-06T13:30:41;0.61;0.61;0.06
82821;PMS5003;72574;46.842;-71.246;2024-03-06T13:33:06;0.9;0.9;0.19
82821;PMS5003;72574;46.842;-71.246;2024-03-06T13:35:33;0.14;0.14;0.09
82821;PMS5003;72574;46.842;-71.246;2024-03-06T13:37:57;1.78;0.94;0.11
82821;PMS5003;72574;46.842;-71.246;2024-03-06T13:40:22;1.63;1.63;0.11
82821;PMS5003;72574;46.842;-71.246;2024-03-06T13:42:49;0.3;0.3;0
82821;PMS5003;72574;46.842;-71.246;2024-03-06T13:45:12;1;1;0.94